Time;durP1;ratioP1;P1;durP2;ratioP2;P2;SDS_P1;SDS_P2;PMS_P1;PMS_P2;Temp;Humidity;BMP_temperature;BMP_pressure;BME280_temperature;BME280_humidity;BME280_pressure;Samples;Min_cycle;Max_cycle;Signal;HPM_P1;HPM_P2
2021/10/02 00:44:37;;;;;;;;;;;;;;;12.18;76.90;96512.91;5074783;28;19958;-78
2021/10/02 00:44:43;;;;;;;;;;;;;;;12.17;77.11;96527.84;5075000;28;19955;-77
2021/10/02 00:47:10;;;;;;;;;;;;;;;12.15;77.00;96527.28;5074933;28;20433;-77
2021/10/02 00:49:37;;;;;;;;;;;;;;;12.16;76.64;96526.28;5074575;28;19969;-77
2021/10/02 00:52:05;;;;;;;;;;;;;;;12.14;77.00;96528.31;5074836;28;19964;-77
2021/10/02 00:54:31;;;;;;;;;;;;;;;12.15;76.93;96531.75;5074892;28;19963;-77
2021/10/02 00:56:57;;;;;;;;;;;;;;;12.15;76.87;96529.91;5074629;28;19961;-77
2021/10/02 00:59:23;;;;;;;;;;;;;;;12.14;77.28;96525.69;5074555;28;19995;-77
2021/10/02 01:01:54;;;;;;;;;;;;;;;12.13;77.29;96526.69;5074537;28;19963;-77
2021/10/02 01:04:31;;;;;;;;;;;;;;;12.12;77.73;96530.38;5074613;28;19952;-77
2021/10/02 01:07:07;;;;;;;;;;;;;;;12.13;77.67;96533.78;5074365;28;19969;-77
2021/10/02 01:09:44;;;;;;;;;;;;;;;12.12;77.80;96522.50;5062393;28;19956;-77
2021/10/02 01:12:35;;;;;;;;;;;;;;;12.12;77.78;96519.06;5074258;28;19957;-76
2021/10/02 01:15:06;;;;;;;;;;;;;;;12.12;78.15;96522.50;5074623;28;19956;-83
2021/10/02 01:17:42;;;;;;;;;;;;;;;12.13;78.61;96521.44;5074924;28;19958;-81
2021/10/02 01:20:22;;;;;;;;;;;;;;;12.13;78.40;96515.41;5073453;28;19961;-79
2021/10/02 01:22:55;;;;;;;;;;;;;;;12.12;78.29;96513.81;5074590;28;19949;-77
2021/10/02 01:25:21;;;;;;;;;;;;;;;12.11;78.50;96518.25;5074286;28;19979;-77
2021/10/02 01:27:51;;;;;;;;;;;;;;;12.11;78.77;96514.81;5073775;28;20487;-77
2021/10/02 01:33:07;;;;;;;;;;;;;;;12.09;78.47;96524.75;5062120;28;19954;-81
2021/10/02 01:35:50;;;;;;;;;;;;;;;12.08;78.98;96512.66;5074098;28;19980;-81
2021/10/02 01:49:17;;;;;;;;;;;;;;;12.05;79.35;96508.63;5074228;28;19960;-80
2021/10/02 01:51:43;;;;;;;;;;;;;;;12.05;79.14;96505.19;5073798;28;19991;-79
2021/10/02 01:54:10;;;;;;;;;;;;;;;12.05;78.81;96505.19;5073680;28;19962;-79
2021/10/02 01:56:36;;;;;;;;;;;;;;;12.02;78.96;96500.41;5073663;28;20455;-80
2021/10/02 01:59:02;;;;;;;;;;;;;;;12.01;79.04;96497.00;5073905;28;20070;-80
2021/10/02 02:01:29;;;;;;;;;;;;;;;12.00;78.75;96497.22;5073964;28;19952;-79
2021/10/02 02:03:56;;;;;;;;;;;;;;;12.00;78.82;96491.94;5073713;28;19954;-79
2021/10/02 02:06:26;;;;;;;;;;;;;;;12.01;78.91;96490.91;5073867;28;19964;-79
2021/10/02 02:08:52;;;;;;;;;;;;;;;12.02;78.84;96492.53;5073476;28;19978;-79
2021/10/02 02:11:18;;;;;;;;;;;;;;;12.01;78.88;96486.47;5073359;28;19955;-79
2021/10/02 02:13:44;;;;;;;;;;;;;;;12.02;79.11;96495.16;5074109;28;19959;-79
2021/10/02 02:16:11;;;;;;;;;;;;;;;12.02;79.02;96485.44;5073376;28;20327;-79
2021/10/02 02:18:37;;;;;;;;;;;;;;;12.03;78.97;96479.13;5073989;28;19958;-79
2021/10/02 02:21:04;;;;;;;;;;;;;;;12.03;79.13;96479.13;5073617;28;19976;-80
2021/10/02 02:23:30;;;;;;;;;;;;;;;12.03;79.48;96476.50;5063174;28;20410;-79
2021/10/02 02:26:03;;;;;;;;;;;;;;;12.01;79.53;96470.72;5073343;28;19967;-79
2021/10/02 02:28:29;;;;;;;;;;;;;;;12.01;79.54;96472.50;5073470;28;19980;-79
2021/10/02 02:30:56;;;;;;;;;;;;;;;12.01;79.39;96464.63;5074090;28;19967;-79
2021/10/02 02:33:22;;;;;;;;;;;;;;;11.99;79.49;96472.75;5077717;28;20318;-79
2021/10/02 02:35:48;;;;;;;;;;;;;;;11.98;79.77;96468.50;5077356;28;19961;-79
2021/10/02 02:38:14;;;;;;;;;;;;;;;12.00;80.26;96468.28;5077910;28;19953;-79
2021/10/02 02:40:40;;;;;;;;;;;;;;;11.98;80.29;96453.53;5077438;28;20431;-80
2021/10/02 02:43:07;;;;;;;;;;;;;;;11.99;80.44;96462.25;5077145;28;19956;-80
2021/10/02 02:45:33;;;;;;;;;;;;;;;11.97;80.22;96459.84;5077101;28;20333;-80
2021/10/02 02:48:13;;;;;;;;;;;;;;;11.97;80.05;96454.56;5077495;28;19967;-79
2021/10/02 02:50:46;;;;;;;;;;;;;;;11.95;80.00;96450.59;5077443;28;20348;-78
2021/10/02 02:53:30;;;;;;;;;;;;;;;11.94;79.59;96446.34;5077289;28;19962;-78
2021/10/02 02:56:15;;;;;;;;;;;;;;;11.94;80.01;96451.59;5062962;28;19953;-77
2021/10/02 02:58:42;;;;;;;;;;;;;;;11.94;80.12;96451.59;5075750;28;19958;-78
2021/10/02 03:01:10;;;;;;;;;;;;;;;11.93;79.98;96455.25;5076701;28;19962;-78
2021/10/02 03:03:37;;;;;;;;;;;;;;;11.92;79.86;96458.91;5076794;28;19968;-78
2021/10/02 03:06:06;;;;;;;;;;;;;;;11.92;79.78;96462.31;5076644;28;19961;-82
2021/10/02 03:08:34;;;;;;;;;;;;;;;11.92;79.68;96464.16;5076998;28;19973;-82
2021/10/02 03:11:03;;;;;;;;;;;;;;;11.92;79.54;96464.16;5076632;28;19950;-82
2021/10/02 03:13:30;;;;;;;;;;;;;;;11.91;79.86;96468.63;5076865;28;20403;-82
2021/10/02 03:15:56;;;;;;;;;;;;;;;11.92;79.91;96474.66;5076801;28;20414;-81
2021/10/02 03:18:25;;;;;;;;;;;;;;;11.91;79.89;96470.44;5076565;28;19962;-81
2021/10/02 03:20:53;;;;;;;;;;;;;;;11.91;79.63;96457.31;5076689;28;19956;-81
2021/10/02 03:23:20;;;;;;;;;;;;;;;11.89;79.55;96454.09;5076481;28;19958;-80
2021/10/02 03:25:46;;;;;;;;;;;;;;;11.90;79.76;96450.44;5067754;28;19961;-80
2021/10/02 03:28:13;;;;;;;;;;;;;;;11.89;80.00;96452.28;5076288;28;19971;-80
2021/10/02 03:30:39;;;;;;;;;;;;;;;11.89;79.79;96454.91;5076164;28;19960;-81
2021/10/02 03:33:05;;;;;;;;;;;;;;;11.88;79.86;96453.28;5076381;28;20306;-80
2021/10/02 03:35:31;;;;;;;;;;;;;;;11.87;79.84;96469.28;5076613;28;19957;-80
2021/10/02 03:37:57;;;;;;;;;;;;;;;11.86;80.03;96470.28;5076053;28;19962;-82
2021/10/02 03:40:24;;;;;;;;;;;;;;;11.84;79.94;96478.38;5076285;28;20055;-82
2021/10/02 03:42:53;;;;;;;;;;;;;;;11.83;79.95;96482.03;5075327;28;19960;-82
2021/10/02 03:45:20;;;;;;;;;;;;;;;11.84;80.10;96480.22;5076309;28;20296;-82
2021/10/02 03:47:46;;;;;;;;;;;;;;;11.83;80.21;96478.63;5075851;28;20475;-78
2021/10/02 03:50:12;;;;;;;;;;;;;;;11.83;80.26;96476.78;5075839;28;19980;-82
2021/10/02 03:52:38;;;;;;;;;;;;;;;11.82;80.31;96469.13;5076276;28;20341;-81
2021/10/02 03:55:05;;;;;;;;;;;;;;;11.81;80.26;96464.91;5075742;28;19984;-81
2021/10/02 03:57:31;;;;;;;;;;;;;;;11.79;80.38;96468.56;5075408;28;20337;-81
2021/10/02 03:59:57;;;;;;;;;;;;;;;11.77;80.54;96457.47;5076044;28;19986;-81
2021/10/02 04:02:23;;;;;;;;;;;;;;;11.76;80.97;96463.75;5076257;28;19957;-81
2021/10/02 04:04:49;;;;;;;;;;;;;;;11.76;80.34;96457.72;5075952;28;20429;-81
2021/10/02 04:07:15;;;;;;;;;;;;;;;11.76;80.41;96452.47;5075823;28;20307;-81
2021/10/02 04:09:41;;;;;;;;;;;;;;;11.74;80.42;96452.66;5075629;28;19973;-81
2021/10/02 04:12:07;;;;;;;;;;;;;;;11.75;80.56;96456.09;5075266;28;19956;-81
2021/10/02 04:14:33;;;;;;;;;;;;;;;11.75;80.64;96463.97;5075490;28;19996;-81
2021/10/02 04:16:59;;;;;;;;;;;;;;;11.76;80.66;96457.72;5075769;28;19958;-81
2021/10/02 04:19:26;;;;;;;;;;;;;;;11.74;81.33;96457.94;5075883;28;19958;-81
2021/10/02 04:21:51;;;;;;;;;;;;;;;11.76;80.74;96465.59;5075602;28;19962;-81
2021/10/02 04:24:18;;;;;;;;;;;;;;;11.75;80.78;96469.22;5075168;28;19967;-81
2021/10/02 04:26:44;;;;;;;;;;;;;;;11.74;80.80;96471.06;5075301;28;19959;-82
2021/10/02 04:29:09;;;;;;;;;;;;;;;11.75;80.78;96469.22;5075234;28;19975;-82
2021/10/02 04:31:35;;;;;;;;;;;;;;;11.74;81.16;96472.91;5075054;28;19957;-82
2021/10/02 04:34:01;;;;;;;;;;;;;;;11.74;81.35;96480.78;5075524;28;20323;-81
2021/10/02 04:36:27;;;;;;;;;;;;;;;11.73;81.00;96476.53;5075175;28;20053;-79
2021/10/02 04:38:54;;;;;;;;;;;;;;;11.71;81.05;96476.75;5075190;28;20413;-79
2021/10/02 04:41:21;;;;;;;;;;;;;;;11.70;80.85;96464.66;5074992;28;19961;-79
2021/10/02 04:43:47;;;;;;;;;;;;;;;11.69;81.00;96475.38;5074862;28;19956;-78
2021/10/02 04:46:14;;;;;;;;;;;;;;;11.68;80.81;96473.78;5074992;28;19957;-79
2021/10/02 04:48:40;;;;;;;;;;;;;;;11.67;80.84;96472.16;5074817;28;20332;-79
2021/10/02 04:51:07;;;;;;;;;;;;;;;11.66;81.31;96467.97;5075472;28;20356;-79
2021/10/02 04:53:33;;;;;;;;;;;;;;;11.65;81.21;96461.09;5074801;28;19976;-79
2021/10/02 04:56:05;;;;;;;;;;;;;;;11.63;81.33;96463.13;5074325;28;19963;-79
2021/10/02 04:58:31;;;;;;;;;;;;;;;11.62;80.88;96464.97;5061921;28;19963;-79
2021/10/02 05:00:59;;;;;;;;;;;;;;;11.61;81.37;96462.56;5073986;28;20465;-81
2021/10/02 05:03:25;;;;;;;;;;;;;;;11.60;81.08;96460.97;5074537;28;19962;-81
2021/10/02 05:05:51;;;;;;;;;;;;;;;11.58;81.00;96458.56;5074635;28;19957;-77
2021/10/02 05:08:17;;;;;;;;;;;;;;;11.57;81.76;96470.91;5074404;28;19979;-80
2021/10/02 05:10:43;;;;;;;;;;;;;;;11.56;81.68;96460.59;5074471;28;19954;-80
2021/10/02 05:13:09;;;;;;;;;;;;;;;11.57;82.06;96464.84;5074406;28;19982;-79
2021/10/02 05:15:37;;;;;;;;;;;;;;;11.55;81.91;96454.56;5074686;28;20410;-79
2021/10/02 05:18:03;;;;;;;;;;;;;;;11.54;81.91;96454.78;5074415;28;19959;-79
2021/10/02 05:20:29;;;;;;;;;;;;;;;11.53;82.08;96446.09;5074067;28;19953;-79
2021/10/02 05:22:55;;;;;;;;;;;;;;;11.54;81.90;96446.91;5074203;28;19964;-79
2021/10/02 05:25:21;;;;;;;;;;;;;;;11.53;81.95;96438.22;5073192;28;20443;-79
2021/10/02 05:27:47;;;;;;;;;;;;;;;11.54;82.08;96441.63;5073835;28;20050;-82
2021/10/02 05:30:13;;;;;;;;;;;;;;;11.53;82.48;96438.22;5073003;28;20378;-82
2021/10/02 05:32:38;;;;;;;;;;;;;;;11.53;82.17;96430.34;5074416;28;20012;-83
2021/10/02 05:35:05;;;;;;;;;;;;;;;11.53;82.39;96430.34;5074135;28;19961;-81
2021/10/02 05:37:31;;;;;;;;;;;;;;;11.53;82.26;96432.97;5074048;28;19960;-81
2021/10/02 05:39:57;;;;;;;;;;;;;;;11.55;82.07;96440.63;5073997;28;20421;-80
2021/10/02 05:42:22;;;;;;;;;;;;;;;11.57;82.21;96435.97;5073735;28;19963;-80
2021/10/02 05:44:48;;;;;;;;;;;;;;;11.60;82.07;96430.25;5074177;28;19960;-80
2021/10/02 05:47:14;;;;;;;;;;;;;;;11.64;81.71;96438.47;5073926;28;20488;-80
2021/10/02 05:49:41;;;;;;;;;;;;;;;11.67;81.69;96444.06;5073688;28;19985;-80
2021/10/02 05:52:12;;;;;;;;;;;;;;;11.71;81.78;96436.53;5073738;28;19967;-80
2021/10/02 05:54:38;;;;;;;;;;;;;;;11.74;82.22;96436.13;5073914;28;20308;-80
2021/10/02 05:57:04;;;;;;;;;;;;;;;11.75;81.40;96437.69;5073625;28;19962;-80
2021/10/02 05:59:30;;;;;;;;;;;;;;;11.79;81.49;96444.09;5074120;28;19958;-80
2021/10/02 06:01:56;;;;;;;;;;;;;;;11.81;81.67;96447.31;5073688;28;19999;-81
2021/10/02 06:04:22;;;;;;;;;;;;;;;11.84;81.39;96441.59;5073768;28;19967;-80
2021/10/02 06:06:48;;;;;;;;;;;;;;;11.86;80.89;96444.00;5072902;28;20042;-80
2021/10/02 06:09:14;;;;;;;;;;;;;;;11.89;80.94;96446.22;5073379;28;20333;-80
2021/10/02 06:11:40;;;;;;;;;;;;;;;12.08;80.63;96434.59;5073469;28;19967;-80
2021/10/02 06:14:06;;;;;;;;;;;;;;;12.27;80.09;96437.91;5072624;28;19982;-80
2021/10/02 06:16:32;;;;;;;;;;;;;;;12.42;79.35;96428.78;5073500;28;19968;-80
2021/10/02 06:18:58;;;;;;;;;;;;;;;12.46;78.85;96429.91;5072244;28;19955;-80
2021/10/02 06:21:24;;;;;;;;;;;;;;;12.45;78.70;96436.19;5073261;28;19974;-80
2021/10/02 06:23:50;;;;;;;;;;;;;;;12.41;78.88;96429.78;5073586;28;19957;-80
2021/10/02 06:26:16;;;;;;;;;;;;;;;12.36;79.01;96426.00;5073357;28;19957;-80
2021/10/02 06:28:41;;;;;;;;;;;;;;;12.30;78.92;96421.66;5073388;28;19968;-80
2021/10/02 06:31:07;;;;;;;;;;;;;;;12.28;79.24;96428.19;5072380;28;19960;-81
2021/10/02 06:33:33;;;;;;;;;;;;;;;12.24;79.57;96430.50;5073265;28;20009;-80
2021/10/02 06:35:59;;;;;;;;;;;;;;;12.21;79.47;96430.94;5073359;28;19991;-80
2021/10/02 06:38:25;;;;;;;;;;;;;;;12.20;80.22;96434.59;5073225;28;20500;-80
2021/10/02 06:40:51;;;;;;;;;;;;;;;12.19;79.89;96433.78;5072002;28;20444;-80
2021/10/02 06:43:17;;;;;;;;;;;;;;;12.19;80.22;96433.78;5073469;28;19967;-80
2021/10/02 06:45:43;;;;;;;;;;;;;;;12.22;79.97;96436.97;5073222;28;19965;-80
2021/10/02 06:48:09;;;;;;;;;;;;;;;12.25;80.21;96436.53;5073361;28;19973;-80
2021/10/02 06:50:35;;;;;;;;;;;;;;;12.27;80.10;96432.66;5072928;28;19986;-80
2021/10/02 06:53:01;;;;;;;;;;;;;;;12.33;79.94;96429.13;5073184;28;19966;-80
2021/10/02 06:55:28;;;;;;;;;;;;;;;12.43;79.89;96439.06;5073329;28;19970;-80
2021/10/02 06:57:54;;;;;;;;;;;;;;;12.51;79.58;96430.81;5072973;28;19962;-80
2021/10/02 07:00:19;;;;;;;;;;;;;;;12.59;79.79;96430.44;5073164;28;19992;-80
2021/10/02 07:02:45;;;;;;;;;;;;;;;12.64;78.73;96431.59;5072988;28;20003;-80
2021/10/02 07:05:13;;;;;;;;;;;;;;;12.68;79.49;96423.03;5072827;28;20327;-80
2021/10/02 07:07:40;;;;;;;;;;;;;;;12.82;79.36;96443.81;5073313;28;19963;-80
2021/10/02 07:10:07;;;;;;;;;;;;;;;13.00;79.05;96446.31;5072977;28;19995;-80
2021/10/02 07:12:33;;;;;;;;;;;;;;;13.12;77.77;96441.81;5072979;28;19953;-80
2021/10/02 07:14:59;;;;;;;;;;;;;;;13.16;77.40;96452.66;5073106;28;19959;-81
2021/10/02 07:17:25;;;;;;;;;;;;;;;13.18;77.14;96455.84;5073930;28;19959;-79
2021/10/02 07:19:51;;;;;;;;;;;;;;;13.18;77.08;96448.75;5076409;28;19977;-80
2021/10/02 07:22:17;;;;;;;;;;;;;;;13.17;76.90;96446.38;5076748;28;19968;-80
2021/10/02 07:24:43;;;;;;;;;;;;;;;13.20;77.14;96438.00;5076414;28;19964;-81
2021/10/02 07:27:09;;;;;;;;;;;;;;;13.27;76.98;96438.66;5076503;28;20007;-81
2021/10/02 07:29:35;;;;;;;;;;;;;;;13.39;76.34;96430.72;5076334;28;20447;-80
2021/10/02 07:32:00;;;;;;;;;;;;;;;13.42;76.17;96440.81;5076346;28;20398;-80
2021/10/02 07:34:26;;;;;;;;;;;;;;;13.52;76.00;96437.53;5076365;28;20045;-80
2021/10/02 07:36:53;;;;;;;;;;;;;;;13.79;76.09;96433.28;5076407;28;20388;-80
2021/10/02 07:39:19;;;;;;;;;;;;;;;14.04;74.35;96428.66;5076476;28;19955;-81
2021/10/02 07:41:47;;;;;;;;;;;;;;;14.19;73.83;96431.53;5076306;28;20377;-81
2021/10/02 07:44:13;;;;;;;;;;;;;;;14.33;73.21;96443.34;5076199;28;19956;-80
2021/10/02 07:46:48;;;;;;;;;;;;;;;14.43;72.36;96436.63;5075850;28;19962;-80
2021/10/02 07:49:15;;;;;;;;;;;;;;;14.40;72.42;96429.97;5076211;28;19980;-77
2021/10/02 07:51:42;;;;;;;;;;;;;;;14.48;73.34;96434.84;5076286;28;20338;-80
2021/10/02 07:54:09;;;;;;;;;;;;;;;14.63;71.85;96434.28;5075953;28;19962;-80
2021/10/02 07:56:35;;;;;;;;;;;;;;;14.80;71.65;96427.16;5075893;28;19953;-80
2021/10/02 07:59:05;;;;;;;;;;;;;;;15.01;70.60;96430.81;5075957;28;19961;-80
2021/10/02 08:01:31;;;;;;;;;;;;;;;15.15;69.06;96427.81;5075834;28;20336;-80
2021/10/02 08:03:57;;;;;;;;;;;;;;;15.13;67.61;96421.97;5075810;28;19951;-80
2021/10/02 08:06:25;;;;;;;;;;;;;;;15.11;69.05;96434.63;5075981;28;19978;-80
2021/10/02 08:08:51;;;;;;;;;;;;;;;15.23;69.01;96437.94;5075397;28;19972;-81
2021/10/02 08:11:17;;;;;;;;;;;;;;;15.29;67.54;96426.38;5075751;28;19963;-80
2021/10/02 08:13:43;;;;;;;;;;;;;;;15.35;66.67;96411.34;5074502;28;20334;-80
2021/10/02 08:16:09;;;;;;;;;;;;;;;15.42;66.52;96418.06;5075617;28;19967;-80
2021/10/02 08:18:38;;;;;;;;;;;;;;;15.50;66.69;96422.09;5075606;28;19963;-80
2021/10/02 08:21:05;;;;;;;;;;;;;;;15.54;66.67;96419.72;5075559;28;20393;-80
2021/10/02 08:23:33;;;;;;;;;;;;;;;15.59;66.80;96425.09;5075448;28;19959;-81
2021/10/02 08:26:00;;;;;;;;;;;;;;;15.62;66.09;96424.56;5075377;28;19960;-80
2021/10/02 08:28:26;;;;;;;;;;;;;;;15.63;66.79;96419.03;5075455;28;19960;-80
2021/10/02 08:30:53;;;;;;;;;;;;;;;15.68;66.51;96420.94;5074857;28;20440;-80
2021/10/02 08:33:19;;;;;;;;;;;;;;;15.70;65.56;96407.47;5074780;28;20357;-80
2021/10/02 08:35:45;;;;;;;;;;;;;;;15.73;66.41;96420.22;5075455;28;20041;-80
2021/10/02 08:38:11;;;;;;;;;;;;;;;15.87;66.10;96420.59;5075247;28;19979;-80
2021/10/02 08:40:38;;;;;;;;;;;;;;;15.99;64.29;96408.00;5075139;28;19968;-80
2021/10/02 08:43:08;;;;;;;;;;;;;;;16.09;63.83;96392.22;5074848;28;19960;-80
2021/10/02 08:45:34;;;;;;;;;;;;;;;16.10;62.18;96383.22;5075369;28;20332;-80
2021/10/02 08:48:01;;;;;;;;;;;;;;;16.17;64.15;96401.53;5074934;28;20041;-80
2021/10/02 08:50:27;;;;;;;;;;;;;;;16.19;63.83;96397.56;5074386;28;19992;-80
2021/10/02 08:52:54;;;;;;;;;;;;;;;16.27;64.70;96403.44;5075183;28;20407;-80
2021/10/02 08:55:20;;;;;;;;;;;;;;;16.36;65.23;96405.34;5074747;28;19963;-80
2021/10/02 08:57:47;;;;;;;;;;;;;;;16.44;64.87;96404.88;5074533;28;20375;-80
2021/10/02 09:00:14;;;;;;;;;;;;;;;16.48;63.08;96381.31;5074672;28;19985;-80
2021/10/02 09:02:40;;;;;;;;;;;;;;;16.51;62.27;96372.09;5074971;28;19965;-80
2021/10/02 09:05:07;;;;;;;;;;;;;;;16.56;62.49;96364.94;5074560;28;19954;-80
2021/10/02 09:07:33;;;;;;;;;;;;;;;16.63;62.84;96373.47;5073285;28;19963;-80
2021/10/02 09:10:02;;;;;;;;;;;;;;;16.71;60.30;96344.88;5074272;28;19983;-80
2021/10/02 09:12:28;;;;;;;;;;;;;;;16.80;62.71;96364.53;5074924;28;19971;-80
2021/10/02 09:14:55;;;;;;;;;;;;;;;16.88;60.31;96344.72;5073155;28;20336;-80
2021/10/02 09:17:22;;;;;;;;;;;;;;;16.89;58.81;96327.78;5074425;28;19961;-80
2021/10/02 09:19:48;;;;;;;;;;;;;;;16.81;58.69;96316.63;5074240;28;20528;-80
2021/10/02 09:22:18;;;;;;;;;;;;;;;16.82;59.34;96328.03;5074174;28;19973;-80
2021/10/02 09:24:44;;;;;;;;;;;;;;;16.82;58.37;96328.03;5073982;28;20326;-80
2021/10/02 09:27:31;;;;;;;;;;;;;;;16.90;60.56;96330.16;5074199;28;19968;-80
2021/10/02 09:30:08;;;;;;;;;;;;;;;16.98;59.85;96320.91;5073788;28;19984;-79
2021/10/02 09:32:43;;;;;;;;;;;;;;;17.03;58.26;96300.53;5074149;28;19960;-80
2021/10/02 09:35:14;;;;;;;;;;;;;;;17.10;59.26;96308.22;5074250;28;19960;-79
2021/10/02 09:37:41;;;;;;;;;;;;;;;17.18;58.22;96298.97;5074332;28;19965;-81
2021/10/02 09:40:07;;;;;;;;;;;;;;;17.20;57.85;96294.19;5073952;28;19958;-80
2021/10/02 09:42:37;;;;;;;;;;;;;;;17.29;58.96;96302.41;5073250;28;19954;-80
2021/10/02 09:45:05;;;;;;;;;;;;;;;17.38;59.02;96303.47;5073877;28;19956;-80
2021/10/02 09:47:31;;;;;;;;;;;;;;;17.44;59.79;96313.81;5073552;28;20415;-80
2021/10/02 09:49:57;;;;;;;;;;;;;;;17.46;56.64;96273.78;5073481;28;20438;-80
2021/10/02 09:52:31;;;;;;;;;;;;;;;17.49;56.71;96272.44;5074271;28;20327;-79
2021/10/02 09:54:58;;;;;;;;;;;;;;;17.55;54.71;96248.31;5074185;28;19966;-80
2021/10/02 09:57:24;;;;;;;;;;;;;;;17.62;56.58;96262.13;5073573;28;20299;-80
2021/10/02 09:59:50;;;;;;;;;;;;;;;17.71;56.36;96258.91;5073646;28;19974;-80
2021/10/02 10:02:17;;;;;;;;;;;;;;;17.78;53.55;96232.91;5073602;28;20008;-80
2021/10/02 10:04:54;;;;;;;;;;;;;;;17.85;51.45;96207.72;5074059;28;19966;-81
2021/10/02 10:07:20;;;;;;;;;;;;;;;17.96;55.73;96250.94;5073463;28;19961;-80
2021/10/02 10:10:00;;;;;;;;;;;;;;;18.05;55.07;96243.22;5073663;28;19972;-80
2021/10/02 10:12:27;;;;;;;;;;;;;;;18.15;53.38;96221.16;5073820;28;19965;-80
2021/10/02 10:14:53;;;;;;;;;;;;;;;18.25;54.32;96235.19;5072304;28;20334;-80
2021/10/02 10:17:19;;;;;;;;;;;;;;;18.34;54.61;96238.06;5072611;28;20443;-80
2021/10/02 10:19:48;;;;;;;;;;;;;;;18.38;52.13;96214.41;5073348;28;19958;-80
2021/10/02 10:22:18;;;;;;;;;;;;;;;18.43;50.59;96206.41;5073557;28;19962;-80
2021/10/02 10:24:55;;;;;;;;;;;;;;;18.55;52.55;96219.38;5073358;28;19956;-80
2021/10/02 10:27:30;;;;;;;;;;;;;;;18.65;52.37;96232.59;5073349;28;19955;-80
2021/10/02 10:30:03;;;;;;;;;;;;;;;18.73;52.53;96234.69;5073364;28;19978;-80
2021/10/02 10:32:29;;;;;;;;;;;;;;;18.83;52.57;96226.66;5073536;28;19983;-79
2021/10/02 10:34:55;;;;;;;;;;;;;;;18.97;53.67;96234.03;5073418;28;19960;-80
2021/10/02 10:37:21;;;;;;;;;;;;;;;19.03;50.63;96201.81;5073168;28;19967;-80
2021/10/02 10:39:47;;;;;;;;;;;;;;;19.09;50.64;96197.25;5072414;28;20374;-80
2021/10/02 10:42:13;;;;;;;;;;;;;;;19.17;53.51;96211.81;5073063;28;20336;-80
2021/10/02 10:44:39;;;;;;;;;;;;;;;19.17;49.51;96191.34;5073651;28;19967;-80
2021/10/02 10:47:05;;;;;;;;;;;;;;;19.25;49.88;96201.34;5073409;28;20048;-80
2021/10/02 10:49:31;;;;;;;;;;;;;;;19.37;51.54;96211.63;5072992;28;19980;-80
2021/10/02 10:51:59;;;;;;;;;;;;;;;19.50;49.72;96204.88;5073335;28;19987;-80
2021/10/02 10:54:25;;;;;;;;;;;;;;;19.64;48.95;96191.72;5075711;28;20326;-80
2021/10/02 10:56:52;;;;;;;;;;;;;;;19.75;49.39;96193.22;5077418;28;19968;-80
2021/10/02 10:59:22;;;;;;;;;;;;;;;19.91;50.06;96193.03;5076772;28;19977;-80
2021/10/02 11:01:49;;;;;;;;;;;;;;;20.08;49.63;96190.72;5077149;28;19960;-80
2021/10/02 11:04:35;;;;;;;;;;;;;;;20.23;49.56;96198.50;5076852;28;19970;-80
2021/10/02 11:07:01;;;;;;;;;;;;;;;20.44;49.96;96192.94;5076918;28;19965;-80
2021/10/02 11:09:34;;;;;;;;;;;;;;;20.47;48.37;96185.16;5077249;28;19973;-78
2021/10/02 11:12:00;;;;;;;;;;;;;;;20.38;47.21;96178.09;5076876;28;19953;-79
2021/10/02 11:14:46;;;;;;;;;;;;;;;20.34;48.59;96185.84;5076626;28;20482;-79
2021/10/02 11:17:13;;;;;;;;;;;;;;;20.37;48.00;96181.81;5063277;28;20340;-80
2021/10/02 11:19:40;;;;;;;;;;;;;;;20.47;49.25;96198.47;5076388;28;20342;-79
2021/10/02 11:22:30;;;;;;;;;;;;;;;20.53;46.65;96171.75;5076629;28;20342;-79
2021/10/02 11:24:58;;;;;;;;;;;;;;;20.59;48.26;96191.94;5076575;28;19959;-79
2021/10/02 11:27:25;;;;;;;;;;;;;;;20.63;47.03;96174.31;5076531;28;19963;-79
2021/10/02 11:29:51;;;;;;;;;;;;;;;20.68;47.31;96176.88;5076303;28;19993;-79
2021/10/02 11:32:17;;;;;;;;;;;;;;;20.72;49.03;96179.78;5076787;28;19984;-79
2021/10/02 11:35:09;;;;;;;;;;;;;;;20.79;46.93;96169.53;5075070;28;19965;-80
2021/10/02 11:37:42;;;;;;;;;;;;;;;20.90;47.91;96167.53;5074956;28;19962;-79
2021/10/02 11:40:28;;;;;;;;;;;;;;;21.02;48.07;96163.31;5075997;28;19965;-79
2021/10/02 11:43:15;;;;;;;;;;;;;;;21.20;47.22;96148.34;5072213;28;20330;-79
2021/10/02 11:46:01;;;;;;;;;;;;;;;21.27;45.07;96138.09;5076053;28;19973;-80
2021/10/02 11:48:30;;;;;;;;;;;;;;;21.27;45.71;96146.09;5074382;28;19956;-80
2021/10/02 11:51:14;;;;;;;;;;;;;;;21.37;45.58;96139.00;5075785;28;19991;-79
2021/10/02 11:53:45;;;;;;;;;;;;;;;21.43;45.74;96137.84;5075865;28;19968;-79
2021/10/02 11:56:18;;;;;;;;;;;;;;;21.47;46.16;96147.63;5076146;28;19968;-79
2021/10/02 11:58:44;;;;;;;;;;;;;;;21.54;43.29;96120.56;5075868;28;19959;-80
2021/10/02 12:01:18;;;;;;;;;;;;;;;21.56;44.49;96129.06;5076065;28;19966;-79
2021/10/02 12:03:44;;;;;;;;;;;;;;;21.48;44.57;96125.22;5067304;28;20270;-79
2021/10/02 12:06:10;;;;;;;;;;;;;;;21.49;45.36;96134.00;5075556;28;19969;-79
2021/10/02 12:08:37;;;;;;;;;;;;;;;21.54;46.09;96128.56;5075685;28;20346;-79
2021/10/02 12:11:08;;;;;;;;;;;;;;;21.52;45.23;96120.06;5075670;28;19976;-79
2021/10/02 12:13:35;;;;;;;;;;;;;;;21.52;44.51;96114.72;5062867;28;20347;-79
2021/10/02 12:16:05;;;;;;;;;;;;;;;21.56;45.10;96120.25;5075257;28;19969;-79
2021/10/02 12:19:01;;;;;;;;;;;;;;;21.63;45.77;96124.13;5075390;28;20418;-80
2021/10/02 12:21:28;;;;;;;;;;;;;;;21.70;45.17;96105.03;5061723;28;19986;-79
2021/10/02 12:24:02;;;;;;;;;;;;;;;21.64;44.67;96103.56;5075201;28;19964;-79
2021/10/02 12:26:28;;;;;;;;;;;;;;;21.70;43.92;96089.03;5075920;28;19975;-79
2021/10/02 12:28:55;;;;;;;;;;;;;;;21.71;45.00;96087.94;5075244;28;19972;-80
2021/10/02 12:31:21;;;;;;;;;;;;;;;21.69;45.48;96085.59;5075501;28;19991;-79
2021/10/02 12:33:47;;;;;;;;;;;;;;;21.61;44.90;96075.59;5075373;28;20379;-79
2021/10/02 12:36:13;;;;;;;;;;;;;;;21.58;45.75;96089.53;5075331;28;20392;-79
2021/10/02 12:38:43;;;;;;;;;;;;;;;21.64;45.18;96080.34;5075132;28;20052;-79
2021/10/02 12:41:09;;;;;;;;;;;;;;;21.67;43.49;96062.94;5075143;28;19967;-79
2021/10/02 12:43:34;;;;;;;;;;;;;;;21.68;44.73;96059.19;5075457;28;20017;-79
2021/10/02 12:46:01;;;;;;;;;;;;;;;21.78;45.86;96061.66;5074991;28;19960;-79
2021/10/02 12:48:27;;;;;;;;;;;;;;;21.87;44.38;96053.72;5074917;28;19964;-79
2021/10/02 12:50:53;;;;;;;;;;;;;;;21.86;42.08;96031.59;5074677;28;19992;-79
2021/10/02 12:53:19;;;;;;;;;;;;;;;21.74;43.90;96049.97;5073792;28;19965;-79
2021/10/02 12:55:46;;;;;;;;;;;;;;;21.61;44.28;96056.13;5074643;28;20303;-79
2021/10/02 12:58:13;;;;;;;;;;;;;;;21.63;42.92;96040.63;5074911;28;19961;-79
2021/10/02 13:00:39;;;;;;;;;;;;;;;21.66;42.55;96034.66;5074517;28;19979;-79
2021/10/02 13:03:05;;;;;;;;;;;;;;;21.60;44.58;96049.22;5074669;28;19963;-79
2021/10/02 13:05:35;;;;;;;;;;;;;;;21.62;44.83;96053.16;5074454;28;20340;-79
2021/10/02 13:08:05;;;;;;;;;;;;;;;21.65;42.42;96025.88;5075417;28;19966;-79
2021/10/02 13:10:31;;;;;;;;;;;;;;;21.70;43.69;96033.00;5074555;28;20419;-79
2021/10/02 13:12:58;;;;;;;;;;;;;;;21.76;43.13;96028.34;5074599;28;19968;-80
2021/10/02 13:15:29;;;;;;;;;;;;;;;21.73;43.60;96026.25;5074375;28;19967;-79
2021/10/02 13:17:55;;;;;;;;;;;;;;;21.71;43.41;96031.09;5074376;28;19956;-79
2021/10/02 13:20:21;;;;;;;;;;;;;;;21.76;42.64;96023.00;5074540;28;19969;-79
2021/10/02 13:22:48;;;;;;;;;;;;;;;21.74;44.35;96030.53;5074562;28;19968;-79
2021/10/02 13:25:20;;;;;;;;;;;;;;;21.74;43.54;96020.63;5074053;28;19966;-79
2021/10/02 13:27:46;;;;;;;;;;;;;;;21.77;44.36;96022.69;5074340;28;19959;-79
2021/10/02 13:30:12;;;;;;;;;;;;;;;21.80;43.86;96013.31;5074125;28;20506;-79
2021/10/02 13:32:39;;;;;;;;;;;;;;;21.85;43.79;96018.53;5073898;28;19966;-79
2021/10/02 13:35:06;;;;;;;;;;;;;;;21.89;44.95;96019.50;5074429;28;20335;-79
2021/10/02 13:37:32;;;;;;;;;;;;;;;21.89;42.92;96003.50;5074155;28;19967;-79
2021/10/02 13:40:03;;;;;;;;;;;;;;;21.82;43.11;96003.91;5074280;28;19975;-79
2021/10/02 13:42:29;;;;;;;;;;;;;;;21.80;42.49;95997.28;5074172;28;19959;-79
2021/10/02 13:44:55;;;;;;;;;;;;;;;21.79;42.63;95990.38;5074299;28;20486;-80
2021/10/02 13:47:22;;;;;;;;;;;;;;;21.84;43.83;96000.94;5074331;28;20442;-79